Indian Grove, Missouri
Current Conditions -  °F | °C
As of 5:35 AM on Friday 31 Oct 2014 (Local Time) from KVER Reporting Station
Overcast Overcast  
Wind Chill:   Ceiling: 2800
Heat Index:   Visibility: 10mi
Dew Point:   Wind: 22mph
Humidity: 64%   Direction: 330°NNW
Pressure: 30.25"   Gusts: 30mph
Location:  39.4474°N, 93.0872°W
Report Text: KVER 311035Z AUTO 33019G26KT 10SM OVC028 09/02 A3025 RMK AO2 T00860021
Loading
Personal Weather Stations






























Interactive Weather Map
Tropical Storm Tracking
New forecast layout! Learn more

10-Day Weather Forecast

Advertisements
Track Severe Weather on mobile